Time;durP1;ratioP1;P1;durP2;ratioP2;P2;SDS_P1;SDS_P2;PMS_P1;PMS_P2;Temp;Humidity;BMP_temperature;BMP_pressure;BME280_temperature;BME280_humidity;BME280_pressure;Samples;Min_cycle;Max_cycle;Signal;HPM_P1;HPM_P2
2023/06/29 00:01:02;;;;;;;2.10;1.77;;;25.00;83.50;;;;;;5095870;28;20480;-83
2023/06/29 00:03:29;;;;;;;2.47;2.27;;;25.00;83.40;;;;;;5096212;28;20432;-83
2023/06/29 00:05:56;;;;;;;3.20;2.30;;;25.00;83.40;;;;;;5095888;28;20438;-83
2023/06/29 00:08:25;;;;;;;2.50;2.30;;;25.00;83.40;;;;;;5095121;28;20490;-84
2023/06/29 00:10:52;;;;;;;1.90;1.80;;;25.00;83.40;;;;;;5094947;28;20463;-83
2023/06/29 00:13:19;;;;;;;2.17;1.97;;;25.00;83.40;;;;;;5096366;28;20530;-82
2023/06/29 00:15:46;;;;;;;2.13;1.80;;;25.00;83.30;;;;;;5095526;28;20448;-86
2023/06/29 00:18:13;;;;;;;2.10;1.90;;;25.00;83.50;;;;;;5095330;28;20432;-83
2023/06/29 00:20:40;;;;;;;2.20;2.00;;;25.00;83.50;;;;;;5096755;28;20459;-96
2023/06/29 00:23:07;;;;;;;2.10;1.87;;;25.00;83.40;;;;;;5095059;28;20458;-83
2023/06/29 00:25:38;;;;;;;3.10;2.30;;;25.00;83.40;;;;;;5095199;28;20432;-83
2023/06/29 00:28:05;;;;;;;2.10;1.90;;;25.00;83.50;;;;;;5095257;28;20488;-83
2023/06/29 00:30:32;;;;;;;2.20;2.00;;;25.00;83.50;;;;;;5095321;28;20439;-93
2023/06/29 00:32:59;;;;;;;1.70;1.60;;;25.00;83.50;;;;;;5095899;28;20451;-83
2023/06/29 00:35:25;;;;;;;2.20;1.83;;;25.00;83.50;;;;;;5096398;28;20445;-83
2023/06/29 00:37:52;;;;;;;2.70;2.20;;;25.00;84.30;;;;;;5094791;28;20445;-83
2023/06/29 00:40:19;;;;;;;2.20;2.00;;;25.00;83.50;;;;;;5094520;28;20438;-83
2023/06/29 00:42:48;;;;;;;2.30;2.10;;;25.00;83.50;;;;;;5094539;28;20439;-83
2023/06/29 00:45:16;;;;;;;2.27;1.63;;;25.00;83.60;;;;;;5095595;28;20463;-83
2023/06/29 00:47:43;;;;;;;2.90;2.00;;;25.00;83.40;;;;;;5094173;28;20564;-96
2023/06/29 00:50:22;;;;;;;2.50;1.97;;;25.00;84.30;;;;;;5094875;28;20808;-83
2023/06/29 00:52:50;;;;;;;2.50;2.30;;;25.00;83.50;;;;;;5094556;28;20448;-83
2023/06/29 00:55:17;;;;;;;1.70;1.60;;;25.00;83.60;;;;;;5094754;28;20480;-83
2023/06/29 00:57:44;;;;;;;2.83;2.30;;;25.00;83.60;;;;;;5096011;28;20448;-96
2023/06/29 01:00:14;;;;;;;2.17;1.97;;;25.00;83.60;;;;;;5096068;28;20461;-83
2023/06/29 01:02:41;;;;;;;1.90;1.70;;;25.00;83.70;;;;;;5094155;28;20469;-82
2023/06/29 01:05:09;;;;;;;2.73;2.43;;;25.00;83.50;;;;;;5094723;28;20439;-83
2023/06/29 01:07:41;;;;;;;3.90;2.40;;;25.00;83.50;;;;;;5095008;28;20482;-83
2023/06/29 01:10:11;;;;;;;2.43;2.00;;;25.00;83.60;;;;;;5094050;28;20455;-83
2023/06/29 01:12:39;;;;;;;2.10;2.00;;;25.00;83.70;;;;;;5095454;28;20443;-84
2023/06/29 01:15:07;;;;;;;2.37;2.00;;;25.00;83.60;;;;;;5096226;28;20443;-83
2023/06/29 01:17:38;;;;;;;2.10;1.90;;;25.00;83.70;;;;;;5095026;28;20450;-83
2023/06/29 01:20:09;;;;;;;2.13;1.80;;;25.00;83.70;;;;;;5095394;28;20445;-96
2023/06/29 01:22:38;;;;;;;2.47;2.27;;;25.00;83.80;;;;;;5094546;28;20466;-86
2023/06/29 01:25:07;;;;;;;2.63;2.17;;;25.00;83.70;;;;;;5094579;28;20434;-83
2023/06/29 01:27:34;;;;;;;3.57;2.07;;;25.00;83.80;;;;;;5094386;28;20438;-84
2023/06/29 01:30:04;;;;;;;2.70;2.00;;;25.00;83.80;;;;;;5094091;28;20469;-83
2023/06/29 01:32:34;;;;;;;2.23;2.03;;;25.00;83.70;;;;;;5095415;28;20448;-84
2023/06/29 01:35:02;;;;;;;2.67;2.10;;;25.00;83.60;;;;;;5094616;28;20443;-83
2023/06/29 01:37:32;;;;;;;2.23;2.00;;;25.00;83.70;;;;;;5099759;28;20475;-84
2023/06/29 01:40:02;;;;;;;2.70;2.03;;;25.00;83.80;;;;;;5100428;28;20440;-84
2023/06/29 01:42:32;;;;;;;1.90;1.80;;;25.20;83.90;;;;;;5100763;28;20435;-84
2023/06/29 01:44:59;;;;;;;1.90;1.77;;;25.00;83.80;;;;;;5098997;28;20443;-84
2023/06/29 01:47:27;;;;;;;2.37;1.90;;;25.00;83.70;;;;;;5099406;28;20454;-88
2023/06/29 01:49:54;;;;;;;2.10;1.87;;;25.00;83.80;;;;;;5099352;28;20485;-86
2023/06/29 01:52:22;;;;;;;2.37;2.20;;;25.00;83.80;;;;;;5099701;28;20462;-83
2023/06/29 01:54:48;;;;;;;1.80;1.70;;;25.00;83.90;;;;;;5083044;28;20516;-83
2023/06/29 01:57:15;;;;;;;2.07;1.87;;;25.00;83.80;;;;;;5098980;28;20532;-96
2023/06/29 01:59:45;;;;;;;2.43;2.20;;;25.00;83.80;;;;;;5101111;28;20511;-83
2023/06/29 02:02:12;;;;;;;2.20;2.00;;;25.00;83.80;;;;;;5100338;28;20482;-84
2023/06/29 02:04:38;;;;;;;2.03;1.87;;;25.00;83.80;;;;;;5100837;28;20444;-83
2023/06/29 02:07:06;;;;;;;1.73;1.63;;;25.00;83.80;;;;;;5099953;28;20590;-84
2023/06/29 02:09:32;;;;;;;2.60;1.47;;;25.00;83.80;;;;;;5098718;28;20635;-96
2023/06/29 02:11:59;;;;;;;2.40;2.20;;;25.00;83.80;;;;;;5100371;28;20790;-89
2023/06/29 02:14:28;;;;;;;2.40;2.10;;;25.00;83.90;;;;;;5099526;28;20439;-83
2023/06/29 02:16:56;;;;;;;2.07;1.87;;;25.00;83.90;;;;;;5100219;28;20437;-83
2023/06/29 02:19:23;;;;;;;1.80;1.70;;;25.00;83.90;;;;;;5100855;28;20445;-96
2023/06/29 02:21:49;;;;;;;2.03;1.87;;;25.00;83.90;;;;;;5097292;28;20487;-96
2023/06/29 02:24:16;;;;;;;2.17;1.90;;;25.00;83.90;;;;;;5097374;28;20434;-83
2023/06/29 02:26:43;;;;;;;1.77;1.67;;;25.00;83.90;;;;;;5096819;28;20440;-83
2023/06/29 02:29:10;;;;;;;2.20;1.83;;;25.00;83.90;;;;;;5096567;28;20497;-83
2023/06/29 02:31:36;;;;;;;2.20;1.90;;;25.00;83.90;;;;;;5096808;28;20534;-83
2023/06/29 02:34:04;;;;;;;2.53;2.23;;;25.00;83.80;;;;;;5096506;28;20461;-94
2023/06/29 02:36:31;;;;;;;2.90;1.70;;;25.00;83.80;;;;;;5098098;28;20955;-83
2023/06/29 02:38:58;;;;;;;1.90;1.70;;;25.00;83.80;;;;;;5096104;28;20944;-83
2023/06/29 02:41:25;;;;;;;1.73;1.63;;;25.00;83.80;;;;;;5095667;28;20544;-83
2023/06/29 02:43:52;;;;;;;1.70;1.60;;;25.00;83.80;;;;;;5096071;28;20449;-83
2023/06/29 02:46:19;;;;;;;2.23;1.83;;;25.00;83.80;;;;;;5095167;28;20460;-83
2023/06/29 02:48:46;;;;;;;2.80;2.20;;;25.00;83.50;;;;;;5097386;28;20562;-96
2023/06/29 02:51:14;;;;;;;2.23;2.03;;;25.00;84.00;;;;;;5097145;28;20452;-83
2023/06/29 02:53:41;;;;;;;2.10;2.00;;;25.00;84.10;;;;;;5096210;28;20817;-83
2023/06/29 02:56:08;;;;;;;3.03;1.90;;;25.00;84.00;;;;;;5098022;28;20463;-83
2023/06/29 02:58:34;;;;;;;2.27;1.70;;;25.00;83.80;;;;;;5096881;28;20792;-96
2023/06/29 03:01:01;;;;;;;2.00;1.90;;;25.00;83.70;;;;;;5098401;28;21014;-83
2023/06/29 03:03:28;;;;;;;2.23;2.13;;;25.00;83.80;;;;;;5097639;28;20435;-83
2023/06/29 03:05:55;;;;;;;2.43;2.23;;;25.00;83.80;;;;;;5097753;28;20435;-83
2023/06/29 03:08:23;;;;;;;1.97;1.87;;;25.00;83.80;;;;;;5097166;28;20480;-83
2023/06/29 03:10:50;;;;;;;2.20;2.00;;;25.00;83.80;;;;;;5097690;28;20444;-83
2023/06/29 03:13:16;;;;;;;2.17;1.97;;;25.00;83.70;;;;;;5098749;28;20462;-83
2023/06/29 03:15:43;;;;;;;2.07;1.87;;;25.00;83.80;;;;;;5097249;28;20437;-83
2023/06/29 03:18:10;;;;;;;2.30;2.00;;;25.00;83.80;;;;;;5098632;28;20428;-94
2023/06/29 03:20:37;;;;;;;2.23;2.03;;;24.90;83.60;;;;;;5095927;28;20486;-83
2023/06/29 03:23:03;;;;;;;2.37;2.10;;;25.00;83.70;;;;;;5096969;28;20947;-96
2023/06/29 03:25:32;;;;;;;2.20;2.00;;;25.00;83.60;;;;;;5096754;28;20440;-83
2023/06/29 03:27:58;;;;;;;2.20;2.00;;;25.00;83.70;;;;;;5097172;28;20440;-83
2023/06/29 03:30:25;;;;;;;1.80;1.70;;;24.90;83.60;;;;;;5095157;28;20492;-83
2023/06/29 03:33:43;;;;;;;;;;;;;;;;;;;;;
2023/06/29 03:37:00;;;;;;;;;;;;;;;;;;;;;
2023/06/29 03:39:27;;;;;;;2.20;2.00;;;24.90;83.70;;;;;;5015410;28;20950;-87
2023/06/29 03:41:55;;;;;;;1.73;1.63;;;24.90;83.70;;;;;;5076821;28;20449;-83
2023/06/29 03:44:22;;;;;;;2.00;1.80;;;24.90;83.80;;;;;;5077307;28;20447;-96
2023/06/29 03:46:49;;;;;;;1.90;1.80;;;24.90;83.80;;;;;;5077517;28;20451;-83
2023/06/29 03:49:15;;;;;;;1.93;1.80;;;24.90;83.80;;;;;;5076935;28;20480;-83
2023/06/29 03:51:42;;;;;;;2.10;2.00;;;25.00;83.80;;;;;;5075211;28;20470;-83
2023/06/29 03:54:09;;;;;;;1.83;1.73;;;25.00;83.80;;;;;;5076353;28;20436;-83
2023/06/29 03:56:36;;;;;;;2.37;2.17;;;24.90;83.60;;;;;;5076065;28;20450;-83
2023/06/29 03:59:04;;;;;;;2.10;2.00;;;24.90;83.70;;;;;;5076379;28;20451;-83
2023/06/29 04:01:31;;;;;;;2.60;2.40;;;25.00;83.80;;;;;;5076467;28;20479;-83
2023/06/29 04:03:57;;;;;;;1.97;1.87;;;25.00;83.80;;;;;;5076263;28;20446;-83
2023/06/29 04:06:24;;;;;;;2.10;2.00;;;25.00;83.90;;;;;;5093514;28;20440;-83
2023/06/29 04:08:51;;;;;;;2.03;1.93;;;24.90;83.80;;;;;;5096089;28;20491;-83
2023/06/29 04:11:18;;;;;;;2.10;1.90;;;25.00;83.90;;;;;;5095786;28;20438;-83
2023/06/29 04:13:45;;;;;;;2.10;2.00;;;25.00;83.90;;;;;;5096695;28;20440;-83
2023/06/29 04:16:13;;;;;;;2.33;1.90;;;25.00;83.80;;;;;;5096375;28;20432;-83
2023/06/29 04:18:39;;;;;;;2.50;2.30;;;24.90;83.70;;;;;;5097325;28;20533;-96
2023/06/29 04:21:06;;;;;;;2.10;1.90;;;25.00;83.80;;;;;;5095647;28;20866;-82
2023/06/29 04:23:33;;;;;;;1.90;1.80;;;25.20;83.90;;;;;;5094790;28;20466;-83
2023/06/29 04:26:02;;;;;;;2.03;1.90;;;25.00;83.70;;;;;;5096109;28;20445;-83
2023/06/29 04:28:29;;;;;;;1.90;1.80;;;25.00;83.80;;;;;;5096484;28;20441;-83
2023/06/29 04:30:56;;;;;;;2.23;2.03;;;25.00;83.80;;;;;;5096762;28;20445;-96
2023/06/29 04:33:24;;;;;;;2.17;2.00;;;25.00;83.80;;;;;;5094817;28;20819;-83
2023/06/29 04:35:51;;;;;;;2.07;1.70;;;25.00;83.80;;;;;;5080367;28;20791;-82
2023/06/29 04:38:18;;;;;;;2.30;2.10;;;25.00;83.80;;;;;;5075916;28;20568;-84
2023/06/29 04:40:45;;;;;;;2.30;2.10;;;25.00;83.90;;;;;;5089805;28;20970;-83
2023/06/29 04:43:13;;;;;;;2.30;2.10;;;25.00;83.90;;;;;;5078519;28;20438;-82
2023/06/29 04:45:40;;;;;;;2.20;2.00;;;25.00;83.80;;;;;;5082466;28;20432;-82
2023/06/29 04:48:07;;;;;;;1.93;1.80;;;25.00;83.80;;;;;;5087714;28;20440;-83
2023/06/29 04:50:36;;;;;;;2.30;2.10;;;25.00;83.90;;;;;;5077866;28;20574;-82
2023/06/29 04:53:09;;;;;;;2.00;1.90;;;25.00;84.00;;;;;;5088245;28;20439;-93
2023/06/29 04:55:36;;;;;;;2.07;1.87;;;25.00;84.00;;;;;;5095496;28;20432;-82
2023/06/29 04:58:03;;;;;;;1.83;1.73;;;25.00;84.00;;;;;;5093993;28;20439;-83
2023/06/29 05:00:30;;;;;;;2.10;2.00;;;25.00;84.10;;;;;;5097189;28;20454;-96
2023/06/29 05:02:57;;;;;;;2.57;2.37;;;25.10;84.20;;;;;;5107617;28;20436;-96
2023/06/29 05:05:24;;;;;;;1.60;1.50;;;25.00;84.10;;;;;;5102366;28;20448;-96
2023/06/29 05:07:52;;;;;;;1.80;1.70;;;25.00;84.10;;;;;;5100763;28;20438;-96
2023/06/29 05:10:19;;;;;;;1.90;1.80;;;25.00;84.10;;;;;;5101295;28;20501;-95
2023/06/29 05:12:46;;;;;;;1.50;1.40;;;25.00;84.00;;;;;;5101591;28;20439;-83
2023/06/29 05:15:13;;;;;;;2.00;1.90;;;25.00;84.00;;;;;;5104441;28;20473;-82
2023/06/29 05:17:40;;;;;;;3.33;2.43;;;24.70;83.80;;;;;;5101211;28;20456;-82
2023/06/29 05:20:08;;;;;;;6.60;3.97;;;25.00;84.40;;;;;;5099687;28;20451;-88
2023/06/29 05:22:36;;;;;;;3.63;3.13;;;25.00;85.80;;;;;;5103208;28;20429;-83
2023/06/29 05:25:04;;;;;;;5.30;4.40;;;25.00;85.70;;;;;;5097086;28;20442;-82
2023/06/29 05:27:31;;;;;;;7.10;4.07;;;24.90;86.10;;;;;;5100574;28;20452;-82
2023/06/29 05:29:58;;;;;;;5.20;4.00;;;24.90;86.60;;;;;;5101187;28;20477;-82
2023/06/29 05:32:25;;;;;;;4.37;3.97;;;25.10;87.10;;;;;;5097379;28;20440;-83
2023/06/29 05:34:51;;;;;;;5.20;3.90;;;24.90;87.80;;;;;;5098983;28;20448;-82
2023/06/29 05:37:18;;;;;;;5.27;4.10;;;24.90;88.40;;;;;;5098380;28;20454;-83
2023/06/29 05:39:45;;;;;;;4.43;4.03;;;24.90;88.90;;;;;;5100113;28;20454;-83
2023/06/29 05:42:13;;;;;;;5.70;4.70;;;24.90;89.20;;;;;;5101304;28;20444;-82
2023/06/29 05:44:40;;;;;;;4.67;4.23;;;24.90;89.40;;;;;;5098926;28;20453;-83
2023/06/29 05:47:07;;;;;;;5.33;4.80;;;24.90;89.60;;;;;;5100183;28;20438;-83
2023/06/29 05:49:34;;;;;;;6.43;4.97;;;24.90;89.90;;;;;;5099019;28;20842;-82
2023/06/29 05:52:00;;;;;;;4.73;3.90;;;24.90;89.50;;;;;;5101606;28;20463;-83
2023/06/29 05:54:27;;;;;;;4.07;3.70;;;24.90;88.80;;;;;;5095253;28;20810;-81
2023/06/29 05:56:54;;;;;;;6.03;4.40;;;24.90;88.70;;;;;;5094431;28;20440;-83
2023/06/29 06:02:44;;;;;;;4.53;4.00;;;24.90;88.90;;;;;;5095032;28;20479;-82
2023/06/29 06:05:11;;;;;;;5.70;5.10;;;24.90;88.60;;;;;;5087814;28;20439;-84
2023/06/29 06:07:39;;;;;;;10.00;5.23;;;24.90;88.80;;;;;;5097955;28;20487;-86
2023/06/29 06:10:06;;;;;;;7.83;4.87;;;24.90;89.20;;;;;;5098176;28;20519;-84
2023/06/29 06:12:33;;;;;;;5.93;4.90;;;24.90;89.10;;;;;;5101302;28;20488;-86
2023/06/29 06:15:00;;;;;;;5.30;4.80;;;24.90;89.10;;;;;;5105739;28;20454;-82
2023/06/29 06:17:27;;;;;;;6.00;5.30;;;24.90;89.70;;;;;;5151198;22;20487;-88
2023/06/29 06:19:56;;;;;;;8.43;5.03;;;24.90;88.90;;;;;;5085064;28;20440;-84
2023/06/29 06:22:24;;;;;;;5.40;4.90;;;24.90;89.40;;;;;;5091807;28;20436;-87
2023/06/29 06:24:51;;;;;;;8.50;5.13;;;24.90;89.70;;;;;;5077613;22;20488;-86
2023/06/29 06:27:18;;;;;;;5.37;4.87;;;24.90;89.50;;;;;;5064756;28;20516;-87
2023/06/29 06:29:45;;;;;;;7.77;5.57;;;25.00;89.50;;;;;;5064873;28;20478;-87
2023/06/29 06:32:11;;;;;;;7.00;4.83;;;24.90;89.70;;;;;;5063641;28;20444;-88
2023/06/29 06:34:38;;;;;;;6.00;5.33;;;24.90;89.70;;;;;;5062235;28;20499;-88
2023/06/29 06:37:07;;;;;;;8.00;5.60;;;24.90;89.80;;;;;;5066656;28;20548;-87
2023/06/29 06:39:34;;;;;;;8.33;4.90;;;24.90;89.40;;;;;;5076930;22;21030;-87
2023/06/29 06:42:04;;;;;;;6.47;5.60;;;24.90;89.30;;;;;;5083420;28;20531;-88
2023/06/29 06:44:31;;;;;;;7.37;5.00;;;24.90;89.10;;;;;;5197004;22;20492;-87
2023/06/29 06:47:00;;;;;;;5.53;4.93;;;24.90;89.30;;;;;;5101427;28;20818;-88
2023/06/29 06:49:27;;;;;;;7.37;5.07;;;24.90;89.10;;;;;;5103615;28;20582;-88
2023/06/29 06:51:53;;;;;;;6.60;5.00;;;24.90;90.00;;;;;;5116899;22;20481;-88
2023/06/29 06:54:22;;;;;;;6.53;5.40;;;24.90;89.50;;;;;;5104261;28;20472;-88
2023/06/29 06:56:48;;;;;;;7.80;4.40;;;24.90;89.60;;;;;;5104211;28;20534;-88
2023/06/29 06:59:15;;;;;;;6.30;4.70;;;24.90;89.40;;;;;;5100801;28;20454;-88
2023/06/29 07:01:42;;;;;;;9.70;5.37;;;24.90;89.30;;;;;;5101503;28;20644;-88
2023/06/29 07:04:09;;;;;;;8.33;5.27;;;24.90;89.30;;;;;;5101889;28;20443;-88
2023/06/29 07:06:36;;;;;;;5.83;4.93;;;25.00;89.20;;;;;;5099782;28;20447;-88
2023/06/29 07:09:07;;;;;;;6.17;4.60;;;25.00;88.90;;;;;;5099761;28;20513;-88
2023/06/29 07:11:38;;;;;;;5.60;4.43;;;25.00;88.40;;;;;;5101236;28;20827;-88
2023/06/29 07:14:05;;;;;;;4.60;4.20;;;25.00;87.80;;;;;;5098274;28;20478;-87
2023/06/29 07:16:32;;;;;;;5.23;4.23;;;25.00;87.40;;;;;;5100098;28;20440;-87
2023/06/29 07:19:05;;;;;;;5.57;5.03;;;25.00;87.30;;;;;;5100750;28;20444;-88
2023/06/29 07:21:33;;;;;;;6.80;4.90;;;25.00;87.30;;;;;;5104493;28;20447;-87
2023/06/29 07:24:02;;;;;;;7.30;4.97;;;25.00;87.10;;;;;;5117549;22;20977;-88
2023/06/29 07:26:29;;;;;;;6.63;5.40;;;25.10;87.00;;;;;;5102575;28;21003;-88
2023/06/29 07:29:12;;;;;;;7.40;5.07;;;25.10;86.90;;;;;;5101122;28;20448;-88
2023/06/29 07:31:39;;;;;;;7.23;5.50;;;25.10;86.90;;;;;;5102542;28;20502;-88
2023/06/29 07:34:06;;;;;;;6.20;4.43;;;25.10;86.90;;;;;;5100483;28;20533;-88
2023/06/29 07:36:34;;;;;;;7.43;4.73;;;25.10;86.90;;;;;;5103235;28;20476;-88
2023/06/29 07:39:01;;;;;;;4.57;4.17;;;25.10;87.00;;;;;;5106995;28;20501;-88
2023/06/29 07:41:28;;;;;;;6.13;5.07;;;25.10;86.90;;;;;;5105550;28;20450;-88
2023/06/29 07:43:57;;;;;;;7.70;4.47;;;25.10;86.90;;;;;;5100095;28;20440;-88
2023/06/29 07:46:26;;;;;;;4.90;3.93;;;25.10;86.70;;;;;;5115231;22;20538;-88
2023/06/29 07:48:54;;;;;;;6.20;4.07;;;25.10;86.70;;;;;;5101827;28;20454;-88
2023/06/29 07:51:22;;;;;;;5.60;4.63;;;25.10;86.70;;;;;;5103477;28;20493;-88
2023/06/29 07:53:50;;;;;;;6.33;4.43;;;25.10;86.80;;;;;;5103298;28;20479;-88
2023/06/29 07:56:17;;;;;;;6.30;5.10;;;25.10;86.80;;;;;;5103473;28;20445;-91
2023/06/29 07:58:43;;;;;;;5.80;4.50;;;25.10;87.20;;;;;;5118335;22;20487;-92
2023/06/29 08:01:13;;;;;;;5.57;4.20;;;25.10;87.00;;;;;;5099138;28;20443;-89
2023/06/29 08:03:44;;;;;;;7.20;4.70;;;25.10;87.20;;;;;;5100592;28;20451;-88
2023/06/29 08:06:10;;;;;;;5.20;3.87;;;25.10;87.10;;;;;;5100064;28;20440;-88
2023/06/29 08:08:40;;;;;;;5.43;4.80;;;25.10;86.90;;;;;;5104237;28;20541;-88
2023/06/29 08:11:12;;;;;;;4.20;3.80;;;25.10;86.90;;;;;;5095503;28;20677;-88
2023/06/29 08:13:39;;;;;;;4.47;4.00;;;25.20;87.10;;;;;;5097826;28;20447;-89
2023/06/29 08:16:06;;;;;;;4.27;3.87;;;25.10;87.00;;;;;;5098949;28;21078;-90
2023/06/29 08:18:33;;;;;;;4.50;4.10;;;25.20;87.10;;;;;;5098075;28;20530;-89
2023/06/29 08:21:01;;;;;;;6.23;3.83;;;25.30;87.90;;;;;;5098822;28;20460;-88
2023/06/29 08:23:28;;;;;;;4.30;3.90;;;25.10;87.00;;;;;;5103815;28;20454;-88
2023/06/29 08:26:02;;;;;;;4.10;3.70;;;25.10;86.70;;;;;;5099417;28;20893;-90
2023/06/29 08:28:29;;;;;;;5.90;4.20;;;25.20;87.20;;;;;;5098220;28;20480;-92
2023/06/29 08:30:56;;;;;;;4.30;3.90;;;25.10;86.90;;;;;;5100935;28;20487;-89
2023/06/29 08:33:23;;;;;;;4.73;3.87;;;25.20;87.00;;;;;;5108284;28;20440;-89
2023/06/29 08:35:51;;;;;;;4.07;3.63;;;25.20;86.90;;;;;;5108023;28;20441;-89
2023/06/29 08:38:20;;;;;;;3.90;3.60;;;25.20;87.00;;;;;;5100050;28;20439;-89
2023/06/29 08:40:47;;;;;;;4.63;4.23;;;25.10;86.90;;;;;;5096419;28;20454;-89
2023/06/29 08:43:17;;;;;;;5.23;4.50;;;25.20;87.00;;;;;;5095244;28;20439;-89
2023/06/29 08:45:45;;;;;;;4.73;3.90;;;25.10;86.90;;;;;;5094408;28;20487;-89
2023/06/29 08:48:13;;;;;;;4.10;3.70;;;25.20;87.10;;;;;;5097054;28;20799;-89
2023/06/29 08:50:44;;;;;;;4.87;3.07;;;25.20;87.00;;;;;;5095006;28;20496;-85
2023/06/29 08:53:13;;;;;;;4.13;3.73;;;25.20;86.90;;;;;;5093725;28;20460;-86
2023/06/29 08:55:43;;;;;;;4.07;3.37;;;25.10;86.90;;;;;;5093340;28;20428;-85
2023/06/29 08:58:09;;;;;;;5.23;4.20;;;25.20;87.00;;;;;;5093343;28;20463;-86
2023/06/29 09:00:38;;;;;;;3.80;3.27;;;25.10;86.90;;;;;;5093671;28;20444;-96
2023/06/29 09:03:05;;;;;;;4.07;3.67;;;25.20;86.80;;;;;;5093548;28;20518;-86
2023/06/29 09:05:34;;;;;;;4.20;3.57;;;25.30;86.90;;;;;;5093373;28;20531;-96
2023/06/29 09:08:01;;;;;;;3.80;3.43;;;25.20;86.60;;;;;;5093661;28;20535;-86
2023/06/29 09:10:28;;;;;;;3.50;3.20;;;25.20;86.60;;;;;;5094000;28;20573;-96
2023/06/29 09:12:56;;;;;;;4.43;3.43;;;25.20;86.60;;;;;;5093384;28;20445;-85
2023/06/29 09:15:25;;;;;;;4.20;3.53;;;25.20;86.60;;;;;;5093371;28;20444;-85
2023/06/29 09:17:55;;;;;;;3.47;3.17;;;25.10;86.60;;;;;;5093306;28;20521;-85
2023/06/29 09:20:23;;;;;;;3.73;3.40;;;25.20;86.70;;;;;;5093225;28;20475;-85
2023/06/29 09:22:51;;;;;;;4.83;3.10;;;25.20;86.60;;;;;;5093400;28;20491;-96
2023/06/29 09:25:18;;;;;;;4.27;3.87;;;25.20;86.70;;;;;;5093645;28;20443;-86
2023/06/29 09:27:45;;;;;;;4.10;3.63;;;25.40;86.70;;;;;;5093238;28;20921;-86
2023/06/29 09:30:18;;;;;;;5.00;3.80;;;25.20;86.50;;;;;;5093392;28;20432;-86
2023/06/29 09:32:44;;;;;;;4.53;3.27;;;25.20;86.50;;;;;;5093115;28;20482;-86
2023/06/29 09:35:12;;;;;;;3.93;3.20;;;25.20;86.60;;;;;;5093338;28;20440;-93
2023/06/29 09:37:40;;;;;;;4.10;3.40;;;25.20;86.60;;;;;;5093336;28;20436;-85
2023/06/29 09:40:09;;;;;;;3.40;3.10;;;25.20;86.60;;;;;;5093454;28;20456;-86
2023/06/29 09:42:40;;;;;;;4.20;3.73;;;25.20;86.60;;;;;;5093091;28;20457;-96
2023/06/29 09:45:11;;;;;;;4.07;3.77;;;25.20;86.50;;;;;;5093561;28;20443;-86
2023/06/29 09:47:41;;;;;;;3.23;3.00;;;25.20;86.50;;;;;;5094041;28;20845;-84
2023/06/29 09:50:19;;;;;;;4.30;3.80;;;25.10;86.60;;;;;;5093010;28;20541;-84
2023/06/29 09:52:46;;;;;;;6.17;3.63;;;25.20;87.50;;;;;;5093218;28;20446;-96
2023/06/29 09:55:14;;;;;;;3.80;3.50;;;25.20;86.70;;;;;;5093318;28;21083;-95
2023/06/29 09:57:42;;;;;;;4.43;3.03;;;25.20;86.70;;;;;;5095762;28;20432;-85
2023/06/29 10:00:12;;;;;;;3.30;3.00;;;25.20;86.70;;;;;;5096589;28;20433;-85
2023/06/29 10:02:40;;;;;;;4.30;3.87;;;25.20;86.70;;;;;;5097139;28;20464;-84
2023/06/29 10:05:08;;;;;;;5.87;5.00;;;25.10;86.80;;;;;;5097012;28;20469;-85
2023/06/29 10:07:35;;;;;;;5.00;4.50;;;25.20;87.10;;;;;;5096372;28;20438;-96
2023/06/29 10:10:05;;;;;;;5.10;4.53;;;25.20;87.30;;;;;;5096601;28;20502;-92
2023/06/29 10:12:33;;;;;;;8.83;4.70;;;25.20;87.20;;;;;;5096465;28;20511;-85
2023/06/29 10:15:08;;;;;;;6.20;4.17;;;25.20;87.30;;;;;;5096694;28;20443;-96
2023/06/29 10:17:44;;;;;;;6.20;4.77;;;25.20;87.30;;;;;;5096649;28;20479;-84
2023/06/29 10:20:14;;;;;;;5.23;4.73;;;25.20;87.50;;;;;;5098281;28;20458;-88
2023/06/29 10:22:43;;;;;;;5.70;5.10;;;25.10;87.70;;;;;;5105567;28;20424;-89
2023/06/29 10:25:15;;;;;;;5.10;4.70;;;25.20;88.00;;;;;;5104760;28;20850;-95
2023/06/29 10:27:43;;;;;;;8.10;5.70;;;25.20;88.20;;;;;;5104538;28;20430;-89
2023/06/29 10:30:11;;;;;;;6.57;5.47;;;25.20;88.20;;;;;;5100889;28;20443;-88
2023/06/29 10:32:39;;;;;;;5.20;4.70;;;25.20;88.20;;;;;;5099375;28;20483;-88
2023/06/29 10:35:10;;;;;;;6.10;5.50;;;25.20;88.20;;;;;;5101471;28;20451;-88
2023/06/29 10:37:38;;;;;;;5.10;4.70;;;25.20;88.10;;;;;;5106062;28;20423;-88
2023/06/29 10:40:14;;;;;;;7.27;4.70;;;25.20;88.80;;;;;;5096517;28;20436;-86
2023/06/29 10:42:55;;;;;;;6.23;5.00;;;25.20;88.40;;;;;;5096476;28;20782;-86
2023/06/29 10:45:34;;;;;;;6.90;5.70;;;25.20;88.30;;;;;;5095841;28;20439;-86
2023/06/29 10:48:03;;;;;;;6.67;4.83;;;25.20;88.90;;;;;;5096880;28;20518;-85
2023/06/29 10:50:33;;;;;;;8.73;5.70;;;25.20;88.70;;;;;;5095330;28;20471;-85
2023/06/29 10:53:01;;;;;;;12.00;5.60;;;25.20;88.70;;;;;;5096061;28;20448;-91
2023/06/29 10:55:29;;;;;;;5.40;4.60;;;25.20;88.40;;;;;;5095498;28;20456;-91
2023/06/29 10:58:00;;;;;;;6.47;5.20;;;25.20;88.50;;;;;;5095726;28;20469;-88
2023/06/29 11:00:27;;;;;;;6.60;5.00;;;25.30;88.40;;;;;;5095782;28;20971;-92
2023/06/29 11:02:55;;;;;;;9.90;5.70;;;25.30;88.30;;;;;;5096962;28;20982;-91
2023/06/29 11:05:23;;;;;;;10.33;5.70;;;25.30;88.40;;;;;;5098865;28;20454;-91
2023/06/29 11:07:53;;;;;;;5.70;4.80;;;25.30;88.40;;;;;;5098159;28;20664;-90
2023/06/29 11:10:21;;;;;;;6.23;5.20;;;25.30;88.20;;;;;;5100537;28;20433;-91
2023/06/29 11:12:50;;;;;;;4.83;4.40;;;25.30;88.20;;;;;;5100196;28;20489;-89
2023/06/29 11:15:19;;;;;;;6.67;5.93;;;25.40;88.20;;;;;;5101515;28;21035;-90
2023/06/29 11:17:49;;;;;;;6.00;5.13;;;25.30;88.10;;;;;;5104799;28;20437;-90
2023/06/29 11:20:17;;;;;;;6.47;5.87;;;25.30;88.40;;;;;;5102007;28;21028;-91
2023/06/29 11:22:44;;;;;;;9.00;5.20;;;25.30;88.50;;;;;;5099719;28;20454;-91
2023/06/29 11:25:15;;;;;;;6.70;5.83;;;25.40;88.40;;;;;;5099999;28;20930;-90
2023/06/29 11:27:43;;;;;;;5.70;5.20;;;25.40;88.50;;;;;;5100295;28;20732;-90
2023/06/29 11:30:11;;;;;;;6.53;5.00;;;25.40;88.50;;;;;;5099109;28;20443;-90
2023/06/29 11:32:39;;;;;;;5.57;5.07;;;25.40;88.40;;;;;;5099569;28;20485;-91
2023/06/29 11:35:09;;;;;;;7.23;5.60;;;25.40;88.50;;;;;;5099103;28;20444;-90
2023/06/29 11:37:37;;;;;;;5.67;5.10;;;25.40;88.60;;;;;;5098482;28;20475;-90
2023/06/29 11:40:07;;;;;;;10.03;5.20;;;25.40;88.50;;;;;;5099006;28;20432;-91
2023/06/29 11:42:36;;;;;;;6.37;5.40;;;25.30;88.50;;;;;;5098233;28;20438;-90
2023/06/29 11:45:06;;;;;;;7.17;5.90;;;25.40;88.90;;;;;;5083661;28;20448;-89
2023/06/29 11:47:33;;;;;;;6.33;5.70;;;25.30;88.60;;;;;;5079329;28;20452;-90
2023/06/29 11:50:01;;;;;;;9.13;5.67;;;25.30;89.00;;;;;;5079447;28;20488;-91
2023/06/29 11:52:30;;;;;;;8.50;5.67;;;25.30;88.80;;;;;;5080058;28;20492;-89
2023/06/29 11:54:57;;;;;;;9.93;5.40;;;25.30;89.20;;;;;;5090266;28;20480;-89
2023/06/29 11:57:24;;;;;;;7.43;5.40;;;25.30;89.50;;;;;;5091186;28;20444;-87
2023/06/29 11:59:52;;;;;;;7.30;5.27;;;25.30;89.40;;;;;;5091237;28;20466;-89
2023/06/29 12:02:20;;;;;;;8.57;5.90;;;25.30;89.80;;;;;;5077694;28;20449;-89
2023/06/29 12:04:58;;;;;;;12.53;8.90;;;25.30;90.00;;;;;;5076303;28;20995;-88
2023/06/29 12:07:38;;;;;;;21.27;10.93;;;25.40;90.10;;;;;;5084135;28;20500;-88
2023/06/29 12:10:06;;;;;;;20.83;11.90;;;25.40;90.30;;;;;;5096238;28;20492;-88
2023/06/29 12:12:37;;;;;;;14.93;10.60;;;25.40;90.40;;;;;;5095102;28;20842;-91
2023/06/29 12:15:16;;;;;;;16.30;10.40;;;25.40;90.60;;;;;;5075759;28;20850;-92
2023/06/29 12:17:44;;;;;;;18.00;11.40;;;25.40;90.50;;;;;;5075063;28;20432;-92
2023/06/29 12:20:13;;;;;;;15.23;9.03;;;25.40;90.30;;;;;;5073179;28;20461;-90
2023/06/29 12:22:41;;;;;;;24.63;9.57;;;25.30;90.30;;;;;;5088012;28;20443;-92
2023/06/29 12:25:11;;;;;;;12.50;8.43;;;25.30;90.20;;;;;;5094332;28;20456;-90
2023/06/29 12:27:40;;;;;;;14.27;9.20;;;25.40;90.30;;;;;;5095012;28;20852;-91
2023/06/29 12:30:08;;;;;;;10.63;8.17;;;25.40;90.40;;;;;;5094478;28;20448;-91
2023/06/29 12:32:36;;;;;;;15.63;8.80;;;25.30;90.20;;;;;;5094744;28;20467;-91
2023/06/29 12:35:04;;;;;;;11.17;7.60;;;25.30;90.30;;;;;;5094772;28;20447;-90
2023/06/29 12:37:31;;;;;;;11.87;8.70;;;25.30;90.30;;;;;;5094762;28;20507;-90
2023/06/29 12:40:04;;;;;;;12.87;8.30;;;25.40;90.30;;;;;;5095073;28;20884;-91
2023/06/29 12:42:32;;;;;;;14.00;8.10;;;25.40;90.30;;;;;;5094917;28;20430;-92
2023/06/29 12:44:59;;;;;;;13.37;8.47;;;25.40;90.30;;;;;;5094765;28;20472;-91
2023/06/29 12:47:26;;;;;;;9.50;7.77;;;25.40;90.20;;;;;;5096438;28;20461;-91
2023/06/29 12:49:55;;;;;;;14.27;7.77;;;25.40;90.20;;;;;;5097661;28;20464;-90
2023/06/29 12:52:22;;;;;;;10.67;7.67;;;25.40;90.20;;;;;;5096351;28;20488;-91
2023/06/29 12:54:49;;;;;;;15.90;7.23;;;25.40;90.10;;;;;;5097701;28;20530;-92
2023/06/29 12:59:42;;;;;;;12.40;8.00;;;25.40;90.20;;;;;;5103828;22;21182;-89